sensor_id;sensor_type;location;lat;lon;timestamp;P1;durP1;ratioP1;P2;durP2;ratioP2
55216;SDS011;41086;46.736;15.666;2023-03-14T00:01:40;8.40;;;3.25;;
55216;SDS011;41086;46.736;15.666;2023-03-14T00:04:09;8.30;;;4.00;;
55216;SDS011;41086;46.736;15.666;2023-03-14T00:06:36;9.15;;;3.67;;
55216;SDS011;41086;46.736;15.666;2023-03-14T00:09:02;9.75;;;4.28;;
55216;SDS011;41086;46.736;15.666;2023-03-14T00:11:29;8.35;;;3.20;;
55216;SDS011;41086;46.736;15.666;2023-03-14T00:13:57;5.68;;;2.55;;
55216;SDS011;41086;46.736;15.666;2023-03-14T00:16:24;10.95;;;3.10;;
55216;SDS011;41086;46.736;15.666;2023-03-14T00:18:50;6.57;;;3.25;;
55216;SDS011;41086;46.736;15.666;2023-03-14T00:21:17;6.97;;;3.33;;
55216;SDS011;41086;46.736;15.666;2023-03-14T00:23:44;3.92;;;2.40;;
55216;SDS011;41086;46.736;15.666;2023-03-14T00:26:12;7.45;;;2.60;;
55216;SDS011;41086;46.736;15.666;2023-03-14T00:28:40;3.85;;;1.90;;
55216;SDS011;41086;46.736;15.666;2023-03-14T00:31:10;4.93;;;1.63;;
55216;SDS011;41086;46.736;15.666;2023-03-14T00:33:39;2.45;;;1.30;;
55216;SDS011;41086;46.736;15.666;2023-03-14T00:36:07;2.75;;;1.20;;
55216;SDS011;41086;46.736;15.666;2023-03-14T00:38:37;4.45;;;1.50;;
55216;SDS011;41086;46.736;15.666;2023-03-14T00:41:06;6.28;;;1.63;;
55216;SDS011;41086;46.736;15.666;2023-03-14T00:43:34;2.67;;;1.48;;
55216;SDS011;41086;46.736;15.666;2023-03-14T00:46:01;2.88;;;1.20;;
55216;SDS011;41086;46.736;15.666;2023-03-14T00:48:28;3.97;;;1.80;;
55216;SDS011;41086;46.736;15.666;2023-03-14T00:50:55;2.65;;;1.38;;
55216;SDS011;41086;46.736;15.666;2023-03-14T00:53:22;3.28;;;1.52;;
55216;SDS011;41086;46.736;15.666;2023-03-14T00:55:49;3.67;;;1.77;;
55216;SDS011;41086;46.736;15.666;2023-03-14T01:00:44;3.53;;;1.45;;
55216;SDS011;41086;46.736;15.666;2023-03-14T01:03:12;4.07;;;1.38;;
55216;SDS011;41086;46.736;15.666;2023-03-14T01:05:40;5.47;;;1.50;;
55216;SDS011;41086;46.736;15.666;2023-03-14T01:08:07;4.93;;;1.33;;
55216;SDS011;41086;46.736;15.666;2023-03-14T01:10:37;6.28;;;1.65;;
55216;SDS011;41086;46.736;15.666;2023-03-14T01:13:04;3.28;;;1.42;;
55216;SDS011;41086;46.736;15.666;2023-03-14T01:15:32;2.70;;;1.38;;
55216;SDS011;41086;46.736;15.666;2023-03-14T01:18:01;7.18;;;1.50;;
55216;SDS011;41086;46.736;15.666;2023-03-14T01:20:27;2.72;;;1.25;;
55216;SDS011;41086;46.736;15.666;2023-03-14T01:22:54;2.65;;;1.65;;
55216;SDS011;41086;46.736;15.666;2023-03-14T01:25:21;3.58;;;1.70;;
55216;SDS011;41086;46.736;15.666;2023-03-14T01:27:49;3.15;;;1.88;;
55216;SDS011;41086;46.736;15.666;2023-03-14T01:30:16;6.95;;;1.73;;
55216;SDS011;41086;46.736;15.666;2023-03-14T01:32:43;3.10;;;1.70;;
55216;SDS011;41086;46.736;15.666;2023-03-14T01:35:10;3.85;;;2.22;;
55216;SDS011;41086;46.736;15.666;2023-03-14T01:37:38;7.07;;;1.95;;
55216;SDS011;41086;46.736;15.666;2023-03-14T01:40:10;5.57;;;2.33;;
55216;SDS011;41086;46.736;15.666;2023-03-14T01:42:38;3.70;;;2.08;;
55216;SDS011;41086;46.736;15.666;2023-03-14T01:45:05;5.55;;;1.85;;
55216;SDS011;41086;46.736;15.666;2023-03-14T01:47:32;4.07;;;1.83;;
55216;SDS011;41086;46.736;15.666;2023-03-14T01:50:01;6.35;;;2.45;;
55216;SDS011;41086;46.736;15.666;2023-03-14T01:52:43;5.20;;;1.75;;
55216;SDS011;41086;46.736;15.666;2023-03-14T01:55:16;4.15;;;1.98;;
55216;SDS011;41086;46.736;15.666;2023-03-14T01:57:49;6.72;;;2.08;;
55216;SDS011;41086;46.736;15.666;2023-03-14T02:00:20;7.43;;;2.42;;
55216;SDS011;41086;46.736;15.666;2023-03-14T02:02:53;5.57;;;2.13;;
55216;SDS011;41086;46.736;15.666;2023-03-14T02:05:28;5.68;;;2.13;;
55216;SDS011;41086;46.736;15.666;2023-03-14T02:08:08;6.13;;;2.08;;
55216;SDS011;41086;46.736;15.666;2023-03-14T02:10:47;5.75;;;1.70;;
55216;SDS011;41086;46.736;15.666;2023-03-14T02:13:19;5.75;;;2.00;;
55216;SDS011;41086;46.736;15.666;2023-03-14T02:16:06;5.78;;;2.33;;
55216;SDS011;41086;46.736;15.666;2023-03-14T02:18:51;1.65;;;0.98;;
55216;SDS011;41086;46.736;15.666;2023-03-14T02:22:09;4.30;;;1.77;;
55216;SDS011;41086;46.736;15.666;2023-03-14T02:24:48;5.25;;;1.85;;
55216;SDS011;41086;46.736;15.666;2023-03-14T02:27:23;7.45;;;1.95;;
55216;SDS011;41086;46.736;15.666;2023-03-14T02:32:29;3.90;;;1.63;;
55216;SDS011;41086;46.736;15.666;2023-03-14T02:34:59;2.55;;;1.40;;
55216;SDS011;41086;46.736;15.666;2023-03-14T02:37:39;3.40;;;1.63;;
55216;SDS011;41086;46.736;15.666;2023-03-14T02:40:32;6.03;;;1.85;;
55216;SDS011;41086;46.736;15.666;2023-03-14T02:42:59;5.25;;;2.78;;
55216;SDS011;41086;46.736;15.666;2023-03-14T02:47:59;5.13;;;2.17;;
55216;SDS011;41086;46.736;15.666;2023-03-14T02:50:34;5.43;;;2.88;;
55216;SDS011;41086;46.736;15.666;2023-03-14T02:53:01;6.60;;;2.50;;
55216;SDS011;41086;46.736;15.666;2023-03-14T02:57:59;7.65;;;2.17;;
55216;SDS011;41086;46.736;15.666;2023-03-14T03:00:27;3.83;;;2.17;;
55216;SDS011;41086;46.736;15.666;2023-03-14T03:02:54;7.35;;;2.22;;
55216;SDS011;41086;46.736;15.666;2023-03-14T03:07:48;7.32;;;2.47;;
55216;SDS011;41086;46.736;15.666;2023-03-14T03:10:16;4.90;;;1.90;;
55216;SDS011;41086;46.736;15.666;2023-03-14T03:12:43;5.50;;;2.10;;
55216;SDS011;41086;46.736;15.666;2023-03-14T03:15:11;6.10;;;2.75;;
55216;SDS011;41086;46.736;15.666;2023-03-14T03:17:37;4.63;;;2.47;;
55216;SDS011;41086;46.736;15.666;2023-03-14T03:20:05;6.30;;;2.72;;
55216;SDS011;41086;46.736;15.666;2023-03-14T03:22:35;9.57;;;3.10;;
55216;SDS011;41086;46.736;15.666;2023-03-14T03:25:07;9.93;;;4.47;;
55216;SDS011;41086;46.736;15.666;2023-03-14T03:27:35;5.15;;;2.08;;
55216;SDS011;41086;46.736;15.666;2023-03-14T03:30:04;4.57;;;2.10;;
55216;SDS011;41086;46.736;15.666;2023-03-14T03:32:33;6.25;;;4.15;;
55216;SDS011;41086;46.736;15.666;2023-03-14T03:35:02;9.20;;;4.20;;
55216;SDS011;41086;46.736;15.666;2023-03-14T03:37:32;16.25;;;6.15;;
55216;SDS011;41086;46.736;15.666;2023-03-14T03:40:01;22.95;;;9.95;;
55216;SDS011;41086;46.736;15.666;2023-03-14T03:42:32;23.00;;;11.13;;
55216;SDS011;41086;46.736;15.666;2023-03-14T03:45:00;4.10;;;1.92;;
55216;SDS011;41086;46.736;15.666;2023-03-14T03:47:29;7.10;;;2.33;;
55216;SDS011;41086;46.736;15.666;2023-03-14T03:49:57;7.35;;;2.65;;
55216;SDS011;41086;46.736;15.666;2023-03-14T03:52:23;7.07;;;4.38;;
55216;SDS011;41086;46.736;15.666;2023-03-14T03:54:50;6.20;;;2.15;;
55216;SDS011;41086;46.736;15.666;2023-03-14T03:57:17;8.52;;;3.45;;
55216;SDS011;41086;46.736;15.666;2023-03-14T03:59:44;7.95;;;3.40;;
55216;SDS011;41086;46.736;15.666;2023-03-14T04:02:11;8.30;;;2.67;;
55216;SDS011;41086;46.736;15.666;2023-03-14T04:04:38;7.55;;;3.03;;
55216;SDS011;41086;46.736;15.666;2023-03-14T04:07:05;5.75;;;2.78;;
55216;SDS011;41086;46.736;15.666;2023-03-14T04:09:32;6.28;;;2.67;;
55216;SDS011;41086;46.736;15.666;2023-03-14T04:12:19;4.78;;;2.55;;
55216;SDS011;41086;46.736;15.666;2023-03-14T04:15:18;6.05;;;2.72;;
55216;SDS011;41086;46.736;15.666;2023-03-14T04:17:49;6.28;;;2.30;;
55216;SDS011;41086;46.736;15.666;2023-03-14T04:20:16;5.70;;;2.15;;
55216;SDS011;41086;46.736;15.666;2023-03-14T04:22:43;4.82;;;1.67;;
55216;SDS011;41086;46.736;15.666;2023-03-14T04:27:43;5.70;;;2.40;;
55216;SDS011;41086;46.736;15.666;2023-03-14T04:30:17;4.78;;;2.03;;
55216;SDS011;41086;46.736;15.666;2023-03-14T04:32:53;6.47;;;2.03;;
55216;SDS011;41086;46.736;15.666;2023-03-14T04:35:23;4.28;;;1.92;;
55216;SDS011;41086;46.736;15.666;2023-03-14T04:37:54;4.47;;;1.58;;
55216;SDS011;41086;46.736;15.666;2023-03-14T04:40:22;3.88;;;1.63;;
55216;SDS011;41086;46.736;15.666;2023-03-14T04:42:52;7.78;;;1.92;;
55216;SDS011;41086;46.736;15.666;2023-03-14T04:45:20;2.92;;;1.15;;
55216;SDS011;41086;46.736;15.666;2023-03-14T04:47:47;4.72;;;2.25;;
55216;SDS011;41086;46.736;15.666;2023-03-14T04:50:17;5.90;;;1.73;;
55216;SDS011;41086;46.736;15.666;2023-03-14T04:52:46;6.72;;;1.83;;
55216;SDS011;41086;46.736;15.666;2023-03-14T04:55:13;4.57;;;2.03;;
55216;SDS011;41086;46.736;15.666;2023-03-14T04:57:40;3.40;;;1.50;;
55216;SDS011;41086;46.736;15.666;2023-03-14T05:00:08;3.15;;;1.63;;
55216;SDS011;41086;46.736;15.666;2023-03-14T05:02:46;5.10;;;1.85;;
55216;SDS011;41086;46.736;15.666;2023-03-14T05:05:42;10.38;;;1.55;;
55216;SDS011;41086;46.736;15.666;2023-03-14T05:08:34;9.43;;;2.72;;
55216;SDS011;41086;46.736;15.666;2023-03-14T05:11:21;4.28;;;1.83;;
55216;SDS011;41086;46.736;15.666;2023-03-14T05:14:06;5.13;;;1.52;;
55216;SDS011;41086;46.736;15.666;2023-03-14T05:16:39;8.02;;;3.28;;
55216;SDS011;41086;46.736;15.666;2023-03-14T05:19:25;6.72;;;2.22;;
55216;SDS011;41086;46.736;15.666;2023-03-14T05:22:08;15.13;;;6.47;;
55216;SDS011;41086;46.736;15.666;2023-03-14T05:24:55;4.55;;;1.38;;
55216;SDS011;41086;46.736;15.666;2023-03-14T05:27:34;6.40;;;2.33;;
55216;SDS011;41086;46.736;15.666;2023-03-14T05:30:19;7.00;;;2.00;;
55216;SDS011;41086;46.736;15.666;2023-03-14T05:33:05;7.60;;;2.17;;
55216;SDS011;41086;46.736;15.666;2023-03-14T05:35:41;4.90;;;2.00;;
55216;SDS011;41086;46.736;15.666;2023-03-14T05:38:27;5.03;;;1.45;;
55216;SDS011;41086;46.736;15.666;2023-03-14T05:41:05;3.53;;;1.95;;
55216;SDS011;41086;46.736;15.666;2023-03-14T05:43:38;4.30;;;2.35;;
55216;SDS011;41086;46.736;15.666;2023-03-14T05:46:34;11.18;;;2.03;;
55216;SDS011;41086;46.736;15.666;2023-03-14T05:49:22;9.07;;;4.15;;
55216;SDS011;41086;46.736;15.666;2023-03-14T05:52:06;8.15;;;2.30;;
55216;SDS011;41086;46.736;15.666;2023-03-14T05:54:36;6.60;;;2.30;;
55216;SDS011;41086;46.736;15.666;2023-03-14T05:57:26;3.60;;;2.10;;
55216;SDS011;41086;46.736;15.666;2023-03-14T06:00:15;3.13;;;1.33;;
55216;SDS011;41086;46.736;15.666;2023-03-14T06:02:55;5.05;;;1.75;;
55216;SDS011;41086;46.736;15.666;2023-03-14T06:05:28;7.30;;;2.50;;
55216;SDS011;41086;46.736;15.666;2023-03-14T06:07:58;5.82;;;2.28;;
55216;SDS011;41086;46.736;15.666;2023-03-14T06:10:27;4.65;;;1.73;;
55216;SDS011;41086;46.736;15.666;2023-03-14T06:12:54;7.38;;;2.40;;
55216;SDS011;41086;46.736;15.666;2023-03-14T06:15:21;5.93;;;1.73;;
55216;SDS011;41086;46.736;15.666;2023-03-14T06:17:50;3.03;;;1.75;;
55216;SDS011;41086;46.736;15.666;2023-03-14T06:20:17;4.07;;;1.40;;
55216;SDS011;41086;46.736;15.666;2023-03-14T06:25:12;7.20;;;1.77;;
55216;SDS011;41086;46.736;15.666;2023-03-14T06:27:39;3.03;;;1.15;;
55216;SDS011;41086;46.736;15.666;2023-03-14T06:30:06;5.78;;;2.30;;
55216;SDS011;41086;46.736;15.666;2023-03-14T06:32:33;2.13;;;1.20;;
55216;SDS011;41086;46.736;15.666;2023-03-14T06:35:05;6.53;;;2.10;;
55216;SDS011;41086;46.736;15.666;2023-03-14T06:37:36;3.75;;;1.27;;
55216;SDS011;41086;46.736;15.666;2023-03-14T06:40:04;2.90;;;1.67;;
55216;SDS011;41086;46.736;15.666;2023-03-14T06:42:51;3.45;;;1.25;;
55216;SDS011;41086;46.736;15.666;2023-03-14T06:45:20;4.65;;;1.38;;
55216;SDS011;41086;46.736;15.666;2023-03-14T06:47:47;4.50;;;1.58;;
55216;SDS011;41086;46.736;15.666;2023-03-14T06:50:17;6.35;;;2.17;;
55216;SDS011;41086;46.736;15.666;2023-03-14T06:52:45;4.72;;;1.33;;
55216;SDS011;41086;46.736;15.666;2023-03-14T06:55:19;3.15;;;1.08;;
55216;SDS011;41086;46.736;15.666;2023-03-14T06:57:49;5.68;;;1.27;;
55216;SDS011;41086;46.736;15.666;2023-03-14T07:00:16;4.35;;;1.42;;
55216;SDS011;41086;46.736;15.666;2023-03-14T07:02:43;1.95;;;1.10;;
55216;SDS011;41086;46.736;15.666;2023-03-14T07:05:30;4.18;;;1.25;;
55216;SDS011;41086;46.736;15.666;2023-03-14T07:07:57;2.60;;;1.02;;
55216;SDS011;41086;46.736;15.666;2023-03-14T07:10:24;1.70;;;1.00;;
55216;SDS011;41086;46.736;15.666;2023-03-14T07:12:50;3.25;;;1.33;;
55216;SDS011;41086;46.736;15.666;2023-03-14T07:15:21;2.00;;;0.90;;
55216;SDS011;41086;46.736;15.666;2023-03-14T07:17:54;4.05;;;1.40;;
55216;SDS011;41086;46.736;15.666;2023-03-14T07:20:22;1.65;;;0.90;;
55216;SDS011;41086;46.736;15.666;2023-03-14T07:22:50;4.50;;;1.40;;
55216;SDS011;41086;46.736;15.666;2023-03-14T07:25:23;4.93;;;1.50;;
55216;SDS011;41086;46.736;15.666;2023-03-14T07:27:50;4.10;;;1.63;;
55216;SDS011;41086;46.736;15.666;2023-03-14T07:30:17;6.80;;;1.23;;
55216;SDS011;41086;46.736;15.666;2023-03-14T07:32:46;4.93;;;1.20;;
55216;SDS011;41086;46.736;15.666;2023-03-14T07:35:13;3.75;;;1.40;;
55216;SDS011;41086;46.736;15.666;2023-03-14T07:37:40;4.70;;;1.25;;
55216;SDS011;41086;46.736;15.666;2023-03-14T07:40:09;2.67;;;1.23;;
55216;SDS011;41086;46.736;15.666;2023-03-14T07:42:39;4.00;;;1.13;;
55216;SDS011;41086;46.736;15.666;2023-03-14T07:45:34;5.88;;;1.25;;
55216;SDS011;41086;46.736;15.666;2023-03-14T07:48:08;5.03;;;1.27;;
55216;SDS011;41086;46.736;15.666;2023-03-14T07:50:35;1.58;;;0.50;;
55216;SDS011;41086;46.736;15.666;2023-03-14T07:53:01;2.03;;;0.98;;
55216;SDS011;41086;46.736;15.666;2023-03-14T07:55:28;5.93;;;1.50;;
55216;SDS011;41086;46.736;15.666;2023-03-14T07:57:55;3.47;;;1.13;;
55216;SDS011;41086;46.736;15.666;2023-03-14T08:00:22;7.60;;;1.55;;
55216;SDS011;41086;46.736;15.666;2023-03-14T08:02:49;2.88;;;1.20;;
55216;SDS011;41086;46.736;15.666;2023-03-14T08:07:43;3.67;;;1.20;;
55216;SDS011;41086;46.736;15.666;2023-03-14T08:10:09;1.50;;;0.73;;
55216;SDS011;41086;46.736;15.666;2023-03-14T08:12:37;4.35;;;1.30;;
55216;SDS011;41086;46.736;15.666;2023-03-14T08:15:04;7.55;;;1.30;;
55216;SDS011;41086;46.736;15.666;2023-03-14T08:17:31;5.35;;;1.63;;
55216;SDS011;41086;46.736;15.666;2023-03-14T08:19:57;2.75;;;1.02;;
55216;SDS011;41086;46.736;15.666;2023-03-14T08:22:24;2.05;;;1.08;;
55216;SDS011;41086;46.736;15.666;2023-03-14T08:24:51;2.65;;;1.17;;
55216;SDS011;41086;46.736;15.666;2023-03-14T08:27:18;5.32;;;1.30;;
55216;SDS011;41086;46.736;15.666;2023-03-14T08:29:44;5.07;;;1.67;;
55216;SDS011;41086;46.736;15.666;2023-03-14T08:32:12;3.92;;;0.90;;
55216;SDS011;41086;46.736;15.666;2023-03-14T08:34:39;3.40;;;1.30;;
55216;SDS011;41086;46.736;15.666;2023-03-14T08:37:05;12.63;;;1.23;;
55216;SDS011;41086;46.736;15.666;2023-03-14T08:39:51;19.42;;;2.08;;
55216;SDS011;41086;46.736;15.666;2023-03-14T08:42:18;10.88;;;1.92;;
55216;SDS011;41086;46.736;15.666;2023-03-14T08:44:45;7.95;;;1.08;;
55216;SDS011;41086;46.736;15.666;2023-03-14T08:47:11;2.95;;;0.80;;
55216;SDS011;41086;46.736;15.666;2023-03-14T08:49:38;6.72;;;0.98;;
55216;SDS011;41086;46.736;15.666;2023-03-14T08:52:05;4.38;;;0.80;;
55216;SDS011;41086;46.736;15.666;2023-03-14T08:54:32;5.13;;;1.40;;
55216;SDS011;41086;46.736;15.666;2023-03-14T08:56:59;4.15;;;1.35;;
55216;SDS011;41086;46.736;15.666;2023-03-14T08:59:26;3.80;;;0.93;;
55216;SDS011;41086;46.736;15.666;2023-03-14T09:01:53;3.40;;;0.90;;
55216;SDS011;41086;46.736;15.666;2023-03-14T09:04:20;2.17;;;0.68;;
55216;SDS011;41086;46.736;15.666;2023-03-14T09:06:48;2.60;;;0.70;;
55216;SDS011;41086;46.736;15.666;2023-03-14T09:09:15;2.95;;;1.35;;
55216;SDS011;41086;46.736;15.666;2023-03-14T09:11:41;3.75;;;1.25;;
55216;SDS011;41086;46.736;15.666;2023-03-14T09:14:08;13.55;;;1.58;;
55216;SDS011;41086;46.736;15.666;2023-03-14T09:16:35;4.30;;;0.63;;
55216;SDS011;41086;46.736;15.666;2023-03-14T09:19:02;1.90;;;0.63;;
55216;SDS011;41086;46.736;15.666;2023-03-14T09:21:28;2.97;;;0.57;;
55216;SDS011;41086;46.736;15.666;2023-03-14T09:23:55;1.17;;;0.43;;
55216;SDS011;41086;46.736;15.666;2023-03-14T09:26:22;2.17;;;0.73;;
55216;SDS011;41086;46.736;15.666;2023-03-14T09:28:49;4.10;;;1.10;;
55216;SDS011;41086;46.736;15.666;2023-03-14T09:33:42;2.28;;;0.60;;
55216;SDS011;41086;46.736;15.666;2023-03-14T09:36:10;3.30;;;0.77;;
55216;SDS011;41086;46.736;15.666;2023-03-14T09:41:11;9.82;;;0.90;;
55216;SDS011;41086;46.736;15.666;2023-03-14T09:46:37;3.40;;;0.77;;
55216;SDS011;41086;46.736;15.666;2023-03-14T09:49:09;3.90;;;1.00;;
55216;SDS011;41086;46.736;15.666;2023-03-14T09:51:44;2.17;;;0.98;;
55216;SDS011;41086;46.736;15.666;2023-03-14T09:57:10;3.65;;;0.98;;
55216;SDS011;41086;46.736;15.666;2023-03-14T09:59:41;1.77;;;0.70;;
55216;SDS011;41086;46.736;15.666;2023-03-14T10:02:18;3.92;;;0.60;;
55216;SDS011;41086;46.736;15.666;2023-03-14T10:04:51;1.70;;;0.63;;
55216;SDS011;41086;46.736;15.666;2023-03-14T10:07:29;3.17;;;1.00;;
55216;SDS011;41086;46.736;15.666;2023-03-14T10:09:57;1.20;;;0.57;;
55216;SDS011;41086;46.736;15.666;2023-03-14T10:12:32;1.75;;;0.60;;
55216;SDS011;41086;46.736;15.666;2023-03-14T10:15:06;2.20;;;0.60;;
55216;SDS011;41086;46.736;15.666;2023-03-14T10:17:41;2.97;;;0.60;;
55216;SDS011;41086;46.736;15.666;2023-03-14T10:23:16;4.72;;;0.95;;
55216;SDS011;41086;46.736;15.666;2023-03-14T10:26:02;1.42;;;0.60;;
55216;SDS011;41086;46.736;15.666;2023-03-14T10:28:38;1.80;;;0.65;;
55216;SDS011;41086;46.736;15.666;2023-03-14T10:31:13;1.80;;;0.60;;
55216;SDS011;41086;46.736;15.666;2023-03-14T10:33:41;2.60;;;0.70;;
55216;SDS011;41086;46.736;15.666;2023-03-14T10:36:16;3.00;;;0.60;;
55216;SDS011;41086;46.736;15.666;2023-03-14T10:38:47;4.70;;;1.90;;
55216;SDS011;41086;46.736;15.666;2023-03-14T10:43:42;1.88;;;0.65;;
55216;SDS011;41086;46.736;15.666;2023-03-14T10:46:17;2.40;;;0.40;;
55216;SDS011;41086;46.736;15.666;2023-03-14T10:49:04;1.35;;;0.60;;
55216;SDS011;41086;46.736;15.666;2023-03-14T10:51:33;2.33;;;0.50;;
55216;SDS011;41086;46.736;15.666;2023-03-14T10:56:26;1.05;;;0.50;;
55216;SDS011;41086;46.736;15.666;2023-03-14T10:58:59;5.18;;;0.90;;
55216;SDS011;41086;46.736;15.666;2023-03-14T11:03:57;2.58;;;0.50;;
55216;SDS011;41086;46.736;15.666;2023-03-14T11:12:19;2.22;;;0.80;;
55216;SDS011;41086;46.736;15.666;2023-03-14T11:20:42;2.10;;;0.63;;
55216;SDS011;41086;46.736;15.666;2023-03-14T11:23:25;5.05;;;0.90;;
55216;SDS011;41086;46.736;15.666;2023-03-14T11:31:20;1.08;;;0.52;;
55216;SDS011;41086;46.736;15.666;2023-03-14T11:36:20;3.75;;;0.60;;
55216;SDS011;41086;46.736;15.666;2023-03-14T11:38:55;1.17;;;0.63;;
55216;SDS011;41086;46.736;15.666;2023-03-14T11:41:33;1.17;;;0.70;;
55216;SDS011;41086;46.736;15.666;2023-03-14T11:44:14;4.15;;;0.90;;
55216;SDS011;41086;46.736;15.666;2023-03-14T11:46:54;1.08;;;0.30;;
55216;SDS011;41086;46.736;15.666;2023-03-14T11:49:30;2.58;;;0.60;;
55216;SDS011;41086;46.736;15.666;2023-03-14T11:51:59;1.17;;;0.52;;
55216;SDS011;41086;46.736;15.666;2023-03-14T11:57:03;1.70;;;0.43;;
55216;SDS011;41086;46.736;15.666;2023-03-14T12:10:38;0.77;;;0.52;;
55216;SDS011;41086;46.736;15.666;2023-03-14T12:13:40;0.77;;;0.43;;
55216;SDS011;41086;46.736;15.666;2023-03-14T12:18:53;1.02;;;0.40;;
55216;SDS011;41086;46.736;15.666;2023-03-14T12:21:20;1.27;;;0.40;;
55216;SDS011;41086;46.736;15.666;2023-03-14T12:23:50;0.85;;;0.30;;
55216;SDS011;41086;46.736;15.666;2023-03-14T12:26:20;1.10;;;0.60;;
55216;SDS011;41086;46.736;15.666;2023-03-14T12:31:36;1.23;;;0.30;;
55216;SDS011;41086;46.736;15.666;2023-03-14T12:47:57;1.00;;;0.50;;
55216;SDS011;41086;46.736;15.666;2023-03-14T12:50:37;0.85;;;0.50;;
55216;SDS011;41086;46.736;15.666;2023-03-14T12:53:19;1.40;;;0.43;;
55216;SDS011;41086;46.736;15.666;2023-03-14T12:55:53;1.45;;;0.45;;
55216;SDS011;41086;46.736;15.666;2023-03-14T12:58:36;2.20;;;0.43;;
55216;SDS011;41086;46.736;15.666;2023-03-14T13:01:18;0.55;;;0.40;;
55216;SDS011;41086;46.736;15.666;2023-03-14T13:03:47;1.33;;;0.68;;
55216;SDS011;41086;46.736;15.666;2023-03-14T13:11:54;0.57;;;0.40;;
55216;SDS011;41086;46.736;15.666;2023-03-14T13:14:45;1.17;;;0.55;;
55216;SDS011;41086;46.736;15.666;2023-03-14T13:17:16;1.17;;;0.73;;
55216;SDS011;41086;46.736;15.666;2023-03-14T13:20:10;1.30;;;0.60;;
55216;SDS011;41086;46.736;15.666;2023-03-14T13:22:45;7.25;;;0.50;;
55216;SDS011;41086;46.736;15.666;2023-03-14T13:25:14;1.33;;;0.52;;
55216;SDS011;41086;46.736;15.666;2023-03-14T13:27:43;0.52;;;0.30;;
55216;SDS011;41086;46.736;15.666;2023-03-14T13:30:21;1.13;;;0.50;;
55216;SDS011;41086;46.736;15.666;2023-03-14T13:32:49;0.30;;;0.30;;
55216;SDS011;41086;46.736;15.666;2023-03-14T13:35:27;0.80;;;0.47;;
55216;SDS011;41086;46.736;15.666;2023-03-14T13:37:56;2.00;;;0.77;;
55216;SDS011;41086;46.736;15.666;2023-03-14T13:40:43;2.27;;;0.67;;
55216;SDS011;41086;46.736;15.666;2023-03-14T13:43:13;1.58;;;0.50;;
55216;SDS011;41086;46.736;15.666;2023-03-14T13:48:28;0.75;;;0.40;;
55216;SDS011;41086;46.736;15.666;2023-03-14T13:51:06;0.50;;;0.35;;
55216;SDS011;41086;46.736;15.666;2023-03-14T13:53:44;2.20;;;0.50;;
55216;SDS011;41086;46.736;15.666;2023-03-14T13:56:13;1.98;;;0.73;;
55216;SDS011;41086;46.736;15.666;2023-03-14T13:58:41;2.08;;;0.80;;
55216;SDS011;41086;46.736;15.666;2023-03-14T14:01:18;1.05;;;0.70;;
55216;SDS011;41086;46.736;15.666;2023-03-14T14:03:50;1.73;;;0.60;;
55216;SDS011;41086;46.736;15.666;2023-03-14T14:08:45;0.63;;;0.47;;
55216;SDS011;41086;46.736;15.666;2023-03-14T14:11:16;4.18;;;0.57;;
55216;SDS011;41086;46.736;15.666;2023-03-14T14:14:14;1.17;;;0.63;;
55216;SDS011;41086;46.736;15.666;2023-03-14T14:16:58;2.78;;;0.57;;
55216;SDS011;41086;46.736;15.666;2023-03-14T14:19:27;1.90;;;0.90;;
55216;SDS011;41086;46.736;15.666;2023-03-14T14:21:56;2.75;;;0.60;;
55216;SDS011;41086;46.736;15.666;2023-03-14T14:24:24;2.05;;;0.63;;
55216;SDS011;41086;46.736;15.666;2023-03-14T14:27:00;1.15;;;0.45;;
55216;SDS011;41086;46.736;15.666;2023-03-14T14:29:29;0.98;;;0.50;;
55216;SDS011;41086;46.736;15.666;2023-03-14T14:32:02;1.48;;;0.88;;
55216;SDS011;41086;46.736;15.666;2023-03-14T14:34:43;1.95;;;0.93;;
55216;SDS011;41086;46.736;15.666;2023-03-14T14:43:01;0.73;;;0.55;;
55216;SDS011;41086;46.736;15.666;2023-03-14T14:45:30;1.17;;;0.50;;
55216;SDS011;41086;46.736;15.666;2023-03-14T14:53:22;1.60;;;0.47;;
55216;SDS011;41086;46.736;15.666;2023-03-14T14:55:58;0.90;;;0.50;;
55216;SDS011;41086;46.736;15.666;2023-03-14T14:58:33;1.15;;;0.45;;
55216;SDS011;41086;46.736;15.666;2023-03-14T15:01:10;1.02;;;0.40;;
55216;SDS011;41086;46.736;15.666;2023-03-14T15:03:44;1.27;;;0.60;;
55216;SDS011;41086;46.736;15.666;2023-03-14T15:06:13;1.80;;;0.70;;
55216;SDS011;41086;46.736;15.666;2023-03-14T15:08:42;1.80;;;0.80;;
55216;SDS011;41086;46.736;15.666;2023-03-14T15:11:15;0.65;;;0.60;;
55216;SDS011;41086;46.736;15.666;2023-03-14T15:13:42;4.40;;;0.73;;
55216;SDS011;41086;46.736;15.666;2023-03-14T15:16:12;2.08;;;0.68;;
55216;SDS011;41086;46.736;15.666;2023-03-14T15:18:44;0.65;;;0.45;;
55216;SDS011;41086;46.736;15.666;2023-03-14T15:21:16;0.43;;;0.32;;
55216;SDS011;41086;46.736;15.666;2023-03-14T15:23:43;5.78;;;0.70;;
55216;SDS011;41086;46.736;15.666;2023-03-14T15:26:11;1.85;;;0.60;;
55216;SDS011;41086;46.736;15.666;2023-03-14T15:28:41;2.70;;;0.57;;
55216;SDS011;41086;46.736;15.666;2023-03-14T15:31:08;1.23;;;0.50;;
55216;SDS011;41086;46.736;15.666;2023-03-14T15:33:37;1.08;;;0.65;;
55216;SDS011;41086;46.736;15.666;2023-03-14T15:38:33;1.30;;;0.43;;
55216;SDS011;41086;46.736;15.666;2023-03-14T15:40:59;3.17;;;0.60;;
55216;SDS011;41086;46.736;15.666;2023-03-14T15:43:26;2.15;;;0.60;;
55216;SDS011;41086;46.736;15.666;2023-03-14T15:45:53;0.98;;;0.55;;
55216;SDS011;41086;46.736;15.666;2023-03-14T15:48:20;3.10;;;0.70;;
55216;SDS011;41086;46.736;15.666;2023-03-14T15:50:47;0.50;;;0.40;;
55216;SDS011;41086;46.736;15.666;2023-03-14T15:53:15;2.92;;;0.60;;
55216;SDS011;41086;46.736;15.666;2023-03-14T15:55:42;3.10;;;1.30;;
55216;SDS011;41086;46.736;15.666;2023-03-14T16:00:41;0.95;;;0.70;;
55216;SDS011;41086;46.736;15.666;2023-03-14T16:03:08;2.33;;;0.80;;
55216;SDS011;41086;46.736;15.666;2023-03-14T16:05:35;5.03;;;0.77;;
55216;SDS011;41086;46.736;15.666;2023-03-14T16:08:01;1.85;;;1.00;;
55216;SDS011;41086;46.736;15.666;2023-03-14T16:10:30;3.03;;;0.80;;
55216;SDS011;41086;46.736;15.666;2023-03-14T16:12:57;11.07;;;4.85;;
55216;SDS011;41086;46.736;15.666;2023-03-14T16:15:25;2.65;;;1.00;;
55216;SDS011;41086;46.736;15.666;2023-03-14T16:17:55;1.23;;;0.50;;
55216;SDS011;41086;46.736;15.666;2023-03-14T16:22:50;1.80;;;0.60;;
55216;SDS011;41086;46.736;15.666;2023-03-14T16:25:19;9.63;;;5.78;;
55216;SDS011;41086;46.736;15.666;2023-03-14T16:27:46;4.88;;;2.58;;
55216;SDS011;41086;46.736;15.666;2023-03-14T16:30:14;2.90;;;2.58;;
55216;SDS011;41086;46.736;15.666;2023-03-14T16:32:41;2.83;;;1.73;;
55216;SDS011;41086;46.736;15.666;2023-03-14T16:35:08;1.83;;;0.80;;
55216;SDS011;41086;46.736;15.666;2023-03-14T16:37:35;3.72;;;0.70;;
55216;SDS011;41086;46.736;15.666;2023-03-14T16:40:02;1.05;;;0.50;;
55216;SDS011;41086;46.736;15.666;2023-03-14T16:42:38;0.57;;;0.50;;
55216;SDS011;41086;46.736;15.666;2023-03-14T16:45:25;1.10;;;0.70;;
55216;SDS011;41086;46.736;15.666;2023-03-14T16:47:53;5.25;;;0.90;;
55216;SDS011;41086;46.736;15.666;2023-03-14T16:50:20;1.70;;;0.70;;
55216;SDS011;41086;46.736;15.666;2023-03-14T16:52:46;1.27;;;0.65;;
55216;SDS011;41086;46.736;15.666;2023-03-14T16:55:15;1.77;;;0.80;;
55216;SDS011;41086;46.736;15.666;2023-03-14T16:57:43;1.15;;;0.52;;
55216;SDS011;41086;46.736;15.666;2023-03-14T17:00:10;2.55;;;0.65;;
55216;SDS011;41086;46.736;15.666;2023-03-14T17:02:38;0.40;;;0.40;;